sensor_id;sensor_type;location;lat;lon;timestamp;temperature;humidity
75893;DHT22;64572;50.950;3.676;2022-11-15T00:00:04;11.30;93.70
75893;DHT22;64572;50.950;3.676;2022-11-15T00:02:48;11.30;93.60
75893;DHT22;64572;50.950;3.676;2022-11-15T00:05:35;11.40;93.60
75893;DHT22;64572;50.950;3.676;2022-11-15T00:08:19;11.40;93.60
75893;DHT22;64572;50.950;3.676;2022-11-15T00:11:03;11.50;93.30
75893;DHT22;64572;50.950;3.676;2022-11-15T00:13:48;11.40;93.40
75893;DHT22;64572;50.950;3.676;2022-11-15T00:16:32;11.40;93.70
75893;DHT22;64572;50.950;3.676;2022-11-15T00:19:16;11.40;93.60
75893;DHT22;64572;50.950;3.676;2022-11-15T00:22:00;11.40;93.70
75893;DHT22;64572;50.950;3.676;2022-11-15T00:24:44;11.40;93.60
75893;DHT22;64572;50.950;3.676;2022-11-15T00:27:28;11.40;93.70
75893;DHT22;64572;50.950;3.676;2022-11-15T00:30:12;11.40;93.50
75893;DHT22;64572;50.950;3.676;2022-11-15T00:32:56;11.40;93.50
75893;DHT22;64572;50.950;3.676;2022-11-15T00:35:40;11.40;93.80
75893;DHT22;64572;50.950;3.676;2022-11-15T00:38:24;11.30;94.10
75893;DHT22;64572;50.950;3.676;2022-11-15T00:41:09;11.30;94.60
75893;DHT22;64572;50.950;3.676;2022-11-15T00:43:53;11.30;94.50
75893;DHT22;64572;50.950;3.676;2022-11-15T00:46:37;11.20;94.50
75893;DHT22;64572;50.950;3.676;2022-11-15T00:49:21;11.20;94.60
75893;DHT22;64572;50.950;3.676;2022-11-15T00:52:05;11.20;94.70
75893;DHT22;64572;50.950;3.676;2022-11-15T00:54:49;11.20;94.50
75893;DHT22;64572;50.950;3.676;2022-11-15T00:57:33;11.30;94.40
75893;DHT22;64572;50.950;3.676;2022-11-15T01:00:17;11.20;94.50
75893;DHT22;64572;50.950;3.676;2022-11-15T01:03:01;11.30;94.40
75893;DHT22;64572;50.950;3.676;2022-11-15T01:05:46;11.20;94.40
75893;DHT22;64572;50.950;3.676;2022-11-15T01:08:30;11.30;94.40
75893;DHT22;64572;50.950;3.676;2022-11-15T01:11:14;11.30;94.30
75893;DHT22;64572;50.950;3.676;2022-11-15T01:13:58;11.30;94.20
75893;DHT22;64572;50.950;3.676;2022-11-15T01:16:42;11.30;94.30
75893;DHT22;64572;50.950;3.676;2022-11-15T01:19:26;11.30;94.20
75893;DHT22;64572;50.950;3.676;2022-11-15T01:22:10;11.20;94.50
75893;DHT22;64572;50.950;3.676;2022-11-15T01:24:54;11.30;94.50
75893;DHT22;64572;50.950;3.676;2022-11-15T01:27:38;11.30;94.40
75893;DHT22;64572;50.950;3.676;2022-11-15T01:30:22;11.20;94.50
75893;DHT22;64572;50.950;3.676;2022-11-15T01:33:07;11.20;94.60
75893;DHT22;64572;50.950;3.676;2022-11-15T01:35:51;11.20;94.50
75893;DHT22;64572;50.950;3.676;2022-11-15T01:38:35;11.30;94.50
75893;DHT22;64572;50.950;3.676;2022-11-15T01:41:23;11.30;94.60
75893;DHT22;64572;50.950;3.676;2022-11-15T01:44:43;11.30;94.70
75893;DHT22;64572;50.950;3.676;2022-11-15T01:47:29;11.20;95.00
75893;DHT22;64572;50.950;3.676;2022-11-15T01:50:18;11.20;95.30
75893;DHT22;64572;50.950;3.676;2022-11-15T01:53:03;11.20;95.30
75893;DHT22;64572;50.950;3.676;2022-11-15T01:55:47;11.20;95.30
75893;DHT22;64572;50.950;3.676;2022-11-15T01:58:31;11.10;95.40
75893;DHT22;64572;50.950;3.676;2022-11-15T02:01:16;11.20;95.30
75893;DHT22;64572;50.950;3.676;2022-11-15T02:04:24;11.10;95.10
75893;DHT22;64572;50.950;3.676;2022-11-15T02:07:10;11.30;94.80
75893;DHT22;64572;50.950;3.676;2022-11-15T02:09:55;11.20;94.70
75893;DHT22;64572;50.950;3.676;2022-11-15T02:12:41;11.10;94.80
75893;DHT22;64572;50.950;3.676;2022-11-15T02:15:32;11.20;94.80
75893;DHT22;64572;50.950;3.676;2022-11-15T02:18:28;11.20;94.50
75893;DHT22;64572;50.950;3.676;2022-11-15T02:21:33;11.20;94.30
75893;DHT22;64572;50.950;3.676;2022-11-15T02:24:32;11.10;94.40
75893;DHT22;64572;50.950;3.676;2022-11-15T02:30:47;11.20;93.70
75893;DHT22;64572;50.950;3.676;2022-11-15T02:33:45;11.10;93.90
75893;DHT22;64572;50.950;3.676;2022-11-15T02:42:25;11.00;93.90
75893;DHT22;64572;50.950;3.676;2022-11-15T02:45:13;11.00;93.80
75893;DHT22;64572;50.950;3.676;2022-11-15T02:48:01;11.00;93.70
75893;DHT22;64572;50.950;3.676;2022-11-15T02:50:47;11.00;93.60
75893;DHT22;64572;50.950;3.676;2022-11-15T02:53:31;11.10;93.60
75893;DHT22;64572;50.950;3.676;2022-11-15T02:56:15;11.10;93.30
75893;DHT22;64572;50.950;3.676;2022-11-15T02:59:09;11.10;93.30
75893;DHT22;64572;50.950;3.676;2022-11-15T03:02:20;11.00;93.20
75893;DHT22;64572;50.950;3.676;2022-11-15T03:08:40;11.00;93.10
75893;DHT22;64572;50.950;3.676;2022-11-15T03:11:29;11.10;92.90
75893;DHT22;64572;50.950;3.676;2022-11-15T03:14:34;11.00;92.90
75893;DHT22;64572;50.950;3.676;2022-11-15T03:17:27;10.90;93.00
75893;DHT22;64572;50.950;3.676;2022-11-15T03:20:14;10.90;92.80
75893;DHT22;64572;50.950;3.676;2022-11-15T03:23:08;10.90;92.90
75893;DHT22;64572;50.950;3.676;2022-11-15T03:25:52;10.80;92.90
75893;DHT22;64572;50.950;3.676;2022-11-15T03:31:29;10.80;92.90
75893;DHT22;64572;50.950;3.676;2022-11-15T03:37:07;10.70;93.00
75893;DHT22;64572;50.950;3.676;2022-11-15T03:39:52;10.60;93.10
75893;DHT22;64572;50.950;3.676;2022-11-15T03:45:33;10.50;93.00
75893;DHT22;64572;50.950;3.676;2022-11-15T03:48:25;10.50;93.00
75893;DHT22;64572;50.950;3.676;2022-11-15T03:51:10;10.50;93.00
75893;DHT22;64572;50.950;3.676;2022-11-15T03:53:55;10.40;92.90
75893;DHT22;64572;50.950;3.676;2022-11-15T03:56:39;10.40;92.90
75893;DHT22;64572;50.950;3.676;2022-11-15T03:59:23;10.50;92.80
75893;DHT22;64572;50.950;3.676;2022-11-15T04:02:07;10.40;92.80
75893;DHT22;64572;50.950;3.676;2022-11-15T04:04:51;10.30;92.90
75893;DHT22;64572;50.950;3.676;2022-11-15T04:07:35;10.20;93.00
75893;DHT22;64572;50.950;3.676;2022-11-15T04:10:20;10.20;93.00
75893;DHT22;64572;50.950;3.676;2022-11-15T04:13:03;10.20;92.90
75893;DHT22;64572;50.950;3.676;2022-11-15T04:15:47;10.20;92.90
75893;DHT22;64572;50.950;3.676;2022-11-15T04:18:32;10.10;92.70
75893;DHT22;64572;50.950;3.676;2022-11-15T04:21:16;10.10;92.60
75893;DHT22;64572;50.950;3.676;2022-11-15T04:24:00;10.10;92.60
75893;DHT22;64572;50.950;3.676;2022-11-15T04:26:44;10.00;92.70
75893;DHT22;64572;50.950;3.676;2022-11-15T04:29:28;10.00;92.70
75893;DHT22;64572;50.950;3.676;2022-11-15T04:32:12;10.00;92.70
75893;DHT22;64572;50.950;3.676;2022-11-15T04:34:56;9.90;92.70
75893;DHT22;64572;50.950;3.676;2022-11-15T04:37:40;9.90;92.80
75893;DHT22;64572;50.950;3.676;2022-11-15T04:40:06;9.90;92.80
75893;DHT22;64572;50.950;3.676;2022-11-15T04:42:32;9.80;92.80
75893;DHT22;64572;50.950;3.676;2022-11-15T04:44:57;9.90;92.80
75893;DHT22;64572;50.950;3.676;2022-11-15T04:47:23;9.80;92.80
75893;DHT22;64572;50.950;3.676;2022-11-15T04:49:49;9.80;92.90
75893;DHT22;64572;50.950;3.676;2022-11-15T04:52:14;9.70;93.00
75893;DHT22;64572;50.950;3.676;2022-11-15T04:54:40;9.70;93.00
75893;DHT22;64572;50.950;3.676;2022-11-15T04:57:07;9.60;93.20
75893;DHT22;64572;50.950;3.676;2022-11-15T04:59:33;9.70;93.20
75893;DHT22;64572;50.950;3.676;2022-11-15T05:01:58;9.60;93.30
75893;DHT22;64572;50.950;3.676;2022-11-15T05:04:24;9.60;93.40
75893;DHT22;64572;50.950;3.676;2022-11-15T05:06:51;9.50;93.40
75893;DHT22;64572;50.950;3.676;2022-11-15T05:09:18;9.50;93.50
75893;DHT22;64572;50.950;3.676;2022-11-15T05:11:44;9.50;93.80
75893;DHT22;64572;50.950;3.676;2022-11-15T05:14:09;9.50;93.50
75893;DHT22;64572;50.950;3.676;2022-11-15T05:16:35;9.40;93.60
75893;DHT22;64572;50.950;3.676;2022-11-15T05:19:01;9.30;93.70
75893;DHT22;64572;50.950;3.676;2022-11-15T05:21:27;9.30;93.80
75893;DHT22;64572;50.950;3.676;2022-11-15T05:23:53;9.40;93.60
75893;DHT22;64572;50.950;3.676;2022-11-15T05:26:19;9.30;93.50
75893;DHT22;64572;50.950;3.676;2022-11-15T05:28:45;9.20;93.60
75893;DHT22;64572;50.950;3.676;2022-11-15T05:31:15;9.20;93.70
75893;DHT22;64572;50.950;3.676;2022-11-15T05:33:41;9.30;93.80
75893;DHT22;64572;50.950;3.676;2022-11-15T05:36:17;9.20;93.70
75893;DHT22;64572;50.950;3.676;2022-11-15T05:38:44;9.20;93.90
75893;DHT22;64572;50.950;3.676;2022-11-15T05:41:11;9.20;93.80
75893;DHT22;64572;50.950;3.676;2022-11-15T05:43:39;9.20;94.00
75893;DHT22;64572;50.950;3.676;2022-11-15T05:46:06;9.20;94.00
75893;DHT22;64572;50.950;3.676;2022-11-15T05:48:34;9.10;93.90
75893;DHT22;64572;50.950;3.676;2022-11-15T05:51:03;9.10;93.80
75893;DHT22;64572;50.950;3.676;2022-11-15T05:53:29;9.10;93.80
75893;DHT22;64572;50.950;3.676;2022-11-15T05:55:55;9.10;94.00
75893;DHT22;64572;50.950;3.676;2022-11-15T05:58:21;9.10;93.70
75893;DHT22;64572;50.950;3.676;2022-11-15T06:00:47;9.10;93.60
75893;DHT22;64572;50.950;3.676;2022-11-15T06:03:13;9.10;93.40
75893;DHT22;64572;50.950;3.676;2022-11-15T06:05:40;9.10;93.60
75893;DHT22;64572;50.950;3.676;2022-11-15T06:08:05;9.00;93.70
75893;DHT22;64572;50.950;3.676;2022-11-15T06:10:31;8.90;93.90
75893;DHT22;64572;50.950;3.676;2022-11-15T06:12:58;8.80;94.10
75893;DHT22;64572;50.950;3.676;2022-11-15T06:15:24;8.90;94.20
75893;DHT22;64572;50.950;3.676;2022-11-15T06:17:50;8.90;94.20
75893;DHT22;64572;50.950;3.676;2022-11-15T06:20:16;8.90;94.10
75893;DHT22;64572;50.950;3.676;2022-11-15T06:22:42;8.90;93.80
75893;DHT22;64572;50.950;3.676;2022-11-15T06:25:07;8.90;93.60
75893;DHT22;64572;50.950;3.676;2022-11-15T06:27:33;8.90;93.20
75893;DHT22;64572;50.950;3.676;2022-11-15T06:29:59;8.90;93.30
75893;DHT22;64572;50.950;3.676;2022-11-15T06:32:24;8.90;93.10
75893;DHT22;64572;50.950;3.676;2022-11-15T06:34:50;8.90;93.30
75893;DHT22;64572;50.950;3.676;2022-11-15T06:37:16;8.80;93.50
75893;DHT22;64572;50.950;3.676;2022-11-15T06:39:41;8.80;93.50
75893;DHT22;64572;50.950;3.676;2022-11-15T06:42:08;8.80;93.70
75893;DHT22;64572;50.950;3.676;2022-11-15T06:44:34;8.80;93.60
75893;DHT22;64572;50.950;3.676;2022-11-15T06:47:00;8.80;93.50
75893;DHT22;64572;50.950;3.676;2022-11-15T06:49:25;8.90;93.50
75893;DHT22;64572;50.950;3.676;2022-11-15T06:51:51;8.80;93.50
75893;DHT22;64572;50.950;3.676;2022-11-15T06:54:16;8.80;93.70
75893;DHT22;64572;50.950;3.676;2022-11-15T06:56:42;8.80;93.70
75893;DHT22;64572;50.950;3.676;2022-11-15T06:59:08;8.90;93.50
75893;DHT22;64572;50.950;3.676;2022-11-15T07:01:33;8.90;93.60
75893;DHT22;64572;50.950;3.676;2022-11-15T07:03:59;8.90;93.50
75893;DHT22;64572;50.950;3.676;2022-11-15T07:06:25;8.90;93.50
75893;DHT22;64572;50.950;3.676;2022-11-15T07:08:50;8.90;93.40
75893;DHT22;64572;50.950;3.676;2022-11-15T07:11:16;8.90;93.60
75893;DHT22;64572;50.950;3.676;2022-11-15T07:13:42;9.00;93.60
75893;DHT22;64572;50.950;3.676;2022-11-15T07:16:09;9.00;93.60
75893;DHT22;64572;50.950;3.676;2022-11-15T07:18:37;9.00;93.70
75893;DHT22;64572;50.950;3.676;2022-11-15T07:21:04;8.90;93.60
75893;DHT22;64572;50.950;3.676;2022-11-15T07:23:30;8.90;93.80
75893;DHT22;64572;50.950;3.676;2022-11-15T07:25:57;9.00;93.70
75893;DHT22;64572;50.950;3.676;2022-11-15T07:28:24;9.10;93.40
75893;DHT22;64572;50.950;3.676;2022-11-15T07:30:49;9.20;93.20
75893;DHT22;64572;50.950;3.676;2022-11-15T07:33:15;9.20;93.30
75893;DHT22;64572;50.950;3.676;2022-11-15T07:35:40;9.30;93.20
75893;DHT22;64572;50.950;3.676;2022-11-15T07:38:08;9.50;92.70
75893;DHT22;64572;50.950;3.676;2022-11-15T07:40:33;9.60;92.30
75893;DHT22;64572;50.950;3.676;2022-11-15T07:43:05;9.50;92.20
75893;DHT22;64572;50.950;3.676;2022-11-15T07:45:30;9.50;92.20
75893;DHT22;64572;50.950;3.676;2022-11-15T07:47:56;9.50;92.20
75893;DHT22;64572;50.950;3.676;2022-11-15T07:50:23;9.50;92.30
75893;DHT22;64572;50.950;3.676;2022-11-15T07:52:56;9.60;92.00
75893;DHT22;64572;50.950;3.676;2022-11-15T07:55:23;9.50;91.70
75893;DHT22;64572;50.950;3.676;2022-11-15T07:57:49;9.50;92.00
75893;DHT22;64572;50.950;3.676;2022-11-15T08:00:15;9.50;92.00
75893;DHT22;64572;50.950;3.676;2022-11-15T08:02:41;9.60;91.90
75893;DHT22;64572;50.950;3.676;2022-11-15T08:05:07;9.60;91.70
75893;DHT22;64572;50.950;3.676;2022-11-15T08:07:33;9.60;91.70
75893;DHT22;64572;50.950;3.676;2022-11-15T08:09:58;9.70;91.60
75893;DHT22;64572;50.950;3.676;2022-11-15T08:12:29;9.80;91.10
75893;DHT22;64572;50.950;3.676;2022-11-15T08:14:55;9.90;91.00
75893;DHT22;64572;50.950;3.676;2022-11-15T08:17:25;10.00;90.70
75893;DHT22;64572;50.950;3.676;2022-11-15T08:19:51;10.20;90.40
75893;DHT22;64572;50.950;3.676;2022-11-15T08:22:17;10.10;90.30
75893;DHT22;64572;50.950;3.676;2022-11-15T08:24:44;10.10;90.50
75893;DHT22;64572;50.950;3.676;2022-11-15T08:27:09;10.30;90.20
75893;DHT22;64572;50.950;3.676;2022-11-15T08:29:44;10.50;88.90
75893;DHT22;64572;50.950;3.676;2022-11-15T08:32:10;10.60;88.70
75893;DHT22;64572;50.950;3.676;2022-11-15T08:34:36;10.40;89.00
75893;DHT22;64572;50.950;3.676;2022-11-15T08:37:02;10.50;88.90
75893;DHT22;64572;50.950;3.676;2022-11-15T08:39:28;10.50;89.70
75893;DHT22;64572;50.950;3.676;2022-11-15T08:41:53;10.50;88.40
75893;DHT22;64572;50.950;3.676;2022-11-15T08:44:19;10.50;88.80
75893;DHT22;64572;50.950;3.676;2022-11-15T08:46:48;10.70;88.20
75893;DHT22;64572;50.950;3.676;2022-11-15T08:49:13;10.80;87.10
75893;DHT22;64572;50.950;3.676;2022-11-15T08:51:39;10.90;87.50
75893;DHT22;64572;50.950;3.676;2022-11-15T08:54:04;11.10;86.30
75893;DHT22;64572;50.950;3.676;2022-11-15T08:56:30;11.20;85.20
75893;DHT22;64572;50.950;3.676;2022-11-15T08:58:56;11.20;85.00
75893;DHT22;64572;50.950;3.676;2022-11-15T09:01:22;11.10;85.80
75893;DHT22;64572;50.950;3.676;2022-11-15T09:03:48;11.10;85.30
75893;DHT22;64572;50.950;3.676;2022-11-15T09:06:13;11.20;84.90
75893;DHT22;64572;50.950;3.676;2022-11-15T09:08:39;11.40;84.00
75893;DHT22;64572;50.950;3.676;2022-11-15T09:11:06;11.40;84.40
75893;DHT22;64572;50.950;3.676;2022-11-15T09:13:33;11.40;84.50
75893;DHT22;64572;50.950;3.676;2022-11-15T09:16:01;11.80;81.80
75893;DHT22;64572;50.950;3.676;2022-11-15T09:18:27;12.50;79.80
75893;DHT22;64572;50.950;3.676;2022-11-15T09:20:57;13.10;75.80
75893;DHT22;64572;50.950;3.676;2022-11-15T09:23:24;13.00;76.90
75893;DHT22;64572;50.950;3.676;2022-11-15T09:25:50;13.60;74.20
75893;DHT22;64572;50.950;3.676;2022-11-15T09:28:16;14.10;71.80
75893;DHT22;64572;50.950;3.676;2022-11-15T09:30:41;14.70;69.80
75893;DHT22;64572;50.950;3.676;2022-11-15T09:33:08;14.90;68.70
75893;DHT22;64572;50.950;3.676;2022-11-15T09:35:34;15.10;67.90
75893;DHT22;64572;50.950;3.676;2022-11-15T09:38:00;15.70;65.60
75893;DHT22;64572;50.950;3.676;2022-11-15T09:40:26;15.20;67.20
75893;DHT22;64572;50.950;3.676;2022-11-15T09:43:11;14.80;68.50
75893;DHT22;64572;50.950;3.676;2022-11-15T09:48:59;13.60;73.10
75893;DHT22;64572;50.950;3.676;2022-11-15T09:51:30;13.90;73.40
75893;DHT22;64572;50.950;3.676;2022-11-15T09:54:01;13.60;74.80
75893;DHT22;64572;50.950;3.676;2022-11-15T09:56:35;13.80;73.80
75893;DHT22;64572;50.950;3.676;2022-11-15T10:04:37;13.60;74.20
75893;DHT22;64572;50.950;3.676;2022-11-15T10:09:51;13.00;75.70
75893;DHT22;64572;50.950;3.676;2022-11-15T10:12:18;13.10;74.70
75893;DHT22;64572;50.950;3.676;2022-11-15T10:14:45;13.00;76.10
75893;DHT22;64572;50.950;3.676;2022-11-15T10:20:29;13.20;74.60
75893;DHT22;64572;50.950;3.676;2022-11-15T10:22:59;13.10;74.80
75893;DHT22;64572;50.950;3.676;2022-11-15T10:25:30;13.00;76.10
75893;DHT22;64572;50.950;3.676;2022-11-15T10:28:05;13.20;75.20
75893;DHT22;64572;50.950;3.676;2022-11-15T10:30:43;13.20;75.80
75893;DHT22;64572;50.950;3.676;2022-11-15T10:33:38;13.30;75.20
75893;DHT22;64572;50.950;3.676;2022-11-15T10:44:23;14.00;71.30
75893;DHT22;64572;50.950;3.676;2022-11-15T10:49:21;14.10;70.70
75893;DHT22;64572;50.950;3.676;2022-11-15T10:51:59;14.20;70.00
75893;DHT22;64572;50.950;3.676;2022-11-15T10:54:36;14.20;70.20
75893;DHT22;64572;50.950;3.676;2022-11-15T10:57:13;14.40;70.50
75893;DHT22;64572;50.950;3.676;2022-11-15T10:59:45;14.40;70.20
75893;DHT22;64572;50.950;3.676;2022-11-15T11:02:37;14.10;71.30
75893;DHT22;64572;50.950;3.676;2022-11-15T11:08:42;14.40;69.90
75893;DHT22;64572;50.950;3.676;2022-11-15T11:10:56;14.00;71.70
75893;DHT22;64572;50.950;3.676;2022-11-15T11:13:44;13.80;72.60
75893;DHT22;64572;50.950;3.676;2022-11-15T11:19:11;13.80;72.30
75893;DHT22;64572;50.950;3.676;2022-11-15T11:24:56;13.70;73.70
75893;DHT22;64572;50.950;3.676;2022-11-15T11:30:07;13.60;73.70
75893;DHT22;64572;50.950;3.676;2022-11-15T11:41:20;13.90;74.20
75893;DHT22;64572;50.950;3.676;2022-11-15T11:49:06;13.80;73.90
75893;DHT22;64572;50.950;3.676;2022-11-15T11:51:54;13.90;72.80
75893;DHT22;64572;50.950;3.676;2022-11-15T11:54:43;13.80;73.40
75893;DHT22;64572;50.950;3.676;2022-11-15T12:08:33;13.70;74.00
75893;DHT22;64572;50.950;3.676;2022-11-15T12:14:36;13.20;76.50
75893;DHT22;64572;50.950;3.676;2022-11-15T12:17:04;13.20;76.80
75893;DHT22;64572;50.950;3.676;2022-11-15T12:19:30;13.30;76.30
75893;DHT22;64572;50.950;3.676;2022-11-15T12:22:18;13.40;76.60
75893;DHT22;64572;50.950;3.676;2022-11-15T12:25:40;13.40;76.30
75893;DHT22;64572;50.950;3.676;2022-11-15T12:27:59;13.50;75.80
75893;DHT22;64572;50.950;3.676;2022-11-15T12:30:41;13.50;75.60
75893;DHT22;64572;50.950;3.676;2022-11-15T12:33:38;13.60;76.20
75893;DHT22;64572;50.950;3.676;2022-11-15T12:36:10;13.60;75.70
75893;DHT22;64572;50.950;3.676;2022-11-15T12:38:59;13.70;74.70
75893;DHT22;64572;50.950;3.676;2022-11-15T12:41:29;13.70;75.50
75893;DHT22;64572;50.950;3.676;2022-11-15T12:43:56;13.80;74.60
75893;DHT22;64572;50.950;3.676;2022-11-15T12:49:09;13.50;75.70
75893;DHT22;64572;50.950;3.676;2022-11-15T13:04:51;13.50;76.20
75893;DHT22;64572;50.950;3.676;2022-11-15T13:30:58;13.40;75.50
75893;DHT22;64572;50.950;3.676;2022-11-15T13:33:37;13.40;75.90
75893;DHT22;64572;50.950;3.676;2022-11-15T13:36:14;13.30;76.40
75893;DHT22;64572;50.950;3.676;2022-11-15T13:38:41;13.40;76.50
75893;DHT22;64572;50.950;3.676;2022-11-15T13:41:31;13.30;77.70
75893;DHT22;64572;50.950;3.676;2022-11-15T13:43:58;13.40;77.00
75893;DHT22;64572;50.950;3.676;2022-11-15T13:46:26;13.30;77.70
75893;DHT22;64572;50.950;3.676;2022-11-15T13:49:03;13.40;77.20
75893;DHT22;64572;50.950;3.676;2022-11-15T13:51:49;13.30;78.10
75893;DHT22;64572;50.950;3.676;2022-11-15T13:56:57;13.10;80.80
75893;DHT22;64572;50.950;3.676;2022-11-15T13:59:29;13.10;80.60
75893;DHT22;64572;50.950;3.676;2022-11-15T14:01:57;12.90;82.50
75893;DHT22;64572;50.950;3.676;2022-11-15T14:04:25;12.90;81.60
75893;DHT22;64572;50.950;3.676;2022-11-15T14:06:57;12.90;82.00
75893;DHT22;64572;50.950;3.676;2022-11-15T14:09:32;12.80;82.60
75893;DHT22;64572;50.950;3.676;2022-11-15T14:11:59;12.80;83.40
75893;DHT22;64572;50.950;3.676;2022-11-15T14:14:27;12.60;85.10
75893;DHT22;64572;50.950;3.676;2022-11-15T14:16:58;12.40;85.20
75893;DHT22;64572;50.950;3.676;2022-11-15T14:22:13;12.30;86.50
75893;DHT22;64572;50.950;3.676;2022-11-15T14:24:40;12.20;87.40
75893;DHT22;64572;50.950;3.676;2022-11-15T14:27:35;12.10;88.40
75893;DHT22;64572;50.950;3.676;2022-11-15T14:30:01;12.20;88.70
75893;DHT22;64572;50.950;3.676;2022-11-15T14:32:29;12.10;89.10
75893;DHT22;64572;50.950;3.676;2022-11-15T14:35:01;12.20;88.40
75893;DHT22;64572;50.950;3.676;2022-11-15T14:37:31;12.10;89.40
75893;DHT22;64572;50.950;3.676;2022-11-15T14:40:02;12.00;90.10
75893;DHT22;64572;50.950;3.676;2022-11-15T14:42:28;11.90;90.60
75893;DHT22;64572;50.950;3.676;2022-11-15T14:44:54;12.00;90.80
75893;DHT22;64572;50.950;3.676;2022-11-15T14:47:20;11.90;90.70
75893;DHT22;64572;50.950;3.676;2022-11-15T14:49:46;12.00;90.90
75893;DHT22;64572;50.950;3.676;2022-11-15T14:52:23;12.00;90.80
75893;DHT22;64572;50.950;3.676;2022-11-15T14:54:49;11.80;91.20
75893;DHT22;64572;50.950;3.676;2022-11-15T14:57:15;11.70;91.80
75893;DHT22;64572;50.950;3.676;2022-11-15T14:59:41;11.80;91.60
75893;DHT22;64572;50.950;3.676;2022-11-15T15:02:26;11.70;91.90
75893;DHT22;64572;50.950;3.676;2022-11-15T15:04:52;11.70;91.90
75893;DHT22;64572;50.950;3.676;2022-11-15T15:07:19;11.80;92.10
75893;DHT22;64572;50.950;3.676;2022-11-15T15:09:45;11.80;92.10
75893;DHT22;64572;50.950;3.676;2022-11-15T15:12:22;11.80;92.10
75893;DHT22;64572;50.950;3.676;2022-11-15T15:14:49;11.90;92.10
75893;DHT22;64572;50.950;3.676;2022-11-15T15:17:16;11.90;92.30
75893;DHT22;64572;50.950;3.676;2022-11-15T15:19:42;11.90;92.10
75893;DHT22;64572;50.950;3.676;2022-11-15T15:22:15;11.80;92.30
75893;DHT22;64572;50.950;3.676;2022-11-15T15:24:41;11.80;92.70
75893;DHT22;64572;50.950;3.676;2022-11-15T15:27:07;11.80;92.80
75893;DHT22;64572;50.950;3.676;2022-11-15T15:29:32;11.70;93.10
75893;DHT22;64572;50.950;3.676;2022-11-15T15:31:58;11.80;93.10
75893;DHT22;64572;50.950;3.676;2022-11-15T15:34:23;11.90;92.80
75893;DHT22;64572;50.950;3.676;2022-11-15T15:36:49;11.90;92.60
75893;DHT22;64572;50.950;3.676;2022-11-15T15:39:15;11.90;93.00
75893;DHT22;64572;50.950;3.676;2022-11-15T15:41:41;12.00;92.70
75893;DHT22;64572;50.950;3.676;2022-11-15T15:44:06;11.90;93.00
75893;DHT22;64572;50.950;3.676;2022-11-15T15:46:34;11.90;93.00
75893;DHT22;64572;50.950;3.676;2022-11-15T15:48:59;11.90;93.40
75893;DHT22;64572;50.950;3.676;2022-11-15T15:51:25;11.90;93.30
75893;DHT22;64572;50.950;3.676;2022-11-15T15:53:51;12.00;92.90
75893;DHT22;64572;50.950;3.676;2022-11-15T15:56:18;11.90;93.40
75893;DHT22;64572;50.950;3.676;2022-11-15T15:58:43;11.90;93.50
75893;DHT22;64572;50.950;3.676;2022-11-15T16:01:09;12.00;93.20
75893;DHT22;64572;50.950;3.676;2022-11-15T16:03:35;12.00;93.20
75893;DHT22;64572;50.950;3.676;2022-11-15T16:06:01;12.00;93.10
75893;DHT22;64572;50.950;3.676;2022-11-15T16:08:29;12.00;93.10
75893;DHT22;64572;50.950;3.676;2022-11-15T16:10:55;12.00;93.20
75893;DHT22;64572;50.950;3.676;2022-11-15T16:13:21;12.00;93.20
75893;DHT22;64572;50.950;3.676;2022-11-15T16:15:50;12.10;93.00
75893;DHT22;64572;50.950;3.676;2022-11-15T16:18:18;12.10;93.00
75893;DHT22;64572;50.950;3.676;2022-11-15T16:20:48;12.10;92.90
75893;DHT22;64572;50.950;3.676;2022-11-15T16:23:16;12.10;92.90
75893;DHT22;64572;50.950;3.676;2022-11-15T16:26:01;12.00;92.90
75893;DHT22;64572;50.950;3.676;2022-11-15T16:28:32;12.00;93.00
75893;DHT22;64572;50.950;3.676;2022-11-15T16:31:07;12.10;92.90
75893;DHT22;64572;50.950;3.676;2022-11-15T16:33:33;12.00;93.10
75893;DHT22;64572;50.950;3.676;2022-11-15T16:35:59;12.10;92.80
75893;DHT22;64572;50.950;3.676;2022-11-15T16:38:26;12.10;92.90
75893;DHT22;64572;50.950;3.676;2022-11-15T16:40:51;12.10;92.90
75893;DHT22;64572;50.950;3.676;2022-11-15T16:43:17;12.10;92.80
75893;DHT22;64572;50.950;3.676;2022-11-15T16:45:43;12.10;92.80
75893;DHT22;64572;50.950;3.676;2022-11-15T16:48:22;12.10;93.00
75893;DHT22;64572;50.950;3.676;2022-11-15T16:50:48;12.10;93.00
75893;DHT22;64572;50.950;3.676;2022-11-15T16:53:13;12.10;92.90
75893;DHT22;64572;50.950;3.676;2022-11-15T16:55:39;12.20;92.70
75893;DHT22;64572;50.950;3.676;2022-11-15T16:58:04;12.20;93.00
75893;DHT22;64572;50.950;3.676;2022-11-15T17:00:30;12.20;93.00
75893;DHT22;64572;50.950;3.676;2022-11-15T17:02:56;12.10;93.40
75893;DHT22;64572;50.950;3.676;2022-11-15T17:05:23;12.10;93.50
75893;DHT22;64572;50.950;3.676;2022-11-15T17:07:51;12.00;93.80
75893;DHT22;64572;50.950;3.676;2022-11-15T17:10:19;12.10;93.80
75893;DHT22;64572;50.950;3.676;2022-11-15T17:12:45;12.10;93.70
75893;DHT22;64572;50.950;3.676;2022-11-15T17:15:12;12.10;94.00
75893;DHT22;64572;50.950;3.676;2022-11-15T17:17:38;12.00;93.90
75893;DHT22;64572;50.950;3.676;2022-11-15T17:20:05;12.00;94.00
75893;DHT22;64572;50.950;3.676;2022-11-15T17:22:35;12.00;93.90
75893;DHT22;64572;50.950;3.676;2022-11-15T17:25:01;12.00;94.00
75893;DHT22;64572;50.950;3.676;2022-11-15T17:27:27;12.00;93.90
75893;DHT22;64572;50.950;3.676;2022-11-15T17:29:53;12.10;93.80
75893;DHT22;64572;50.950;3.676;2022-11-15T17:32:18;12.00;94.00
75893;DHT22;64572;50.950;3.676;2022-11-15T17:34:44;12.00;94.00
75893;DHT22;64572;50.950;3.676;2022-11-15T17:37:09;12.00;94.00
75893;DHT22;64572;50.950;3.676;2022-11-15T17:39:35;12.00;93.90
75893;DHT22;64572;50.950;3.676;2022-11-15T17:42:00;12.10;93.90
75893;DHT22;64572;50.950;3.676;2022-11-15T17:44:26;12.10;93.80
75893;DHT22;64572;50.950;3.676;2022-11-15T17:46:52;12.10;93.90
75893;DHT22;64572;50.950;3.676;2022-11-15T17:49:17;12.20;93.60
75893;DHT22;64572;50.950;3.676;2022-11-15T17:51:43;12.10;93.70
75893;DHT22;64572;50.950;3.676;2022-11-15T17:54:11;12.20;93.80
75893;DHT22;64572;50.950;3.676;2022-11-15T17:56:38;12.20;93.50
75893;DHT22;64572;50.950;3.676;2022-11-15T17:59:05;12.10;93.70
75893;DHT22;64572;50.950;3.676;2022-11-15T18:01:35;12.10;93.80
75893;DHT22;64572;50.950;3.676;2022-11-15T18:04:03;12.10;94.10
75893;DHT22;64572;50.950;3.676;2022-11-15T18:06:31;12.10;93.80
75893;DHT22;64572;50.950;3.676;2022-11-15T18:08:57;12.20;93.70
75893;DHT22;64572;50.950;3.676;2022-11-15T18:11:35;12.10;93.60
75893;DHT22;64572;50.950;3.676;2022-11-15T18:14:04;12.20;93.80
75893;DHT22;64572;50.950;3.676;2022-11-15T18:16:31;12.20;93.60
75893;DHT22;64572;50.950;3.676;2022-11-15T18:18:57;12.30;93.60
75893;DHT22;64572;50.950;3.676;2022-11-15T18:21:28;12.30;93.20
75893;DHT22;64572;50.950;3.676;2022-11-15T18:23:56;12.30;93.20